sensor_id;sensor_type;location;lat;lon;timestamp;P1;durP1;ratioP1;P2;durP2;ratioP2
71937;SDS011;59810;48.800;9.086;2023-05-10T00:00:15;2.33;;;0.70;;
71937;SDS011;59810;48.800;9.086;2023-05-10T00:02:40;1.50;;;0.47;;
71937;SDS011;59810;48.800;9.086;2023-05-10T00:05:08;1.03;;;0.40;;
71937;SDS011;59810;48.800;9.086;2023-05-10T00:07:34;0.93;;;0.40;;
71937;SDS011;59810;48.800;9.086;2023-05-10T00:09:59;1.57;;;0.50;;
71937;SDS011;59810;48.800;9.086;2023-05-10T00:12:24;0.80;;;0.40;;
71937;SDS011;59810;48.800;9.086;2023-05-10T00:14:50;2.80;;;0.40;;
71937;SDS011;59810;48.800;9.086;2023-05-10T00:17:15;2.43;;;0.40;;
71937;SDS011;59810;48.800;9.086;2023-05-10T00:19:40;2.70;;;0.30;;
71937;SDS011;59810;48.800;9.086;2023-05-10T00:22:06;0.67;;;0.30;;
71937;SDS011;59810;48.800;9.086;2023-05-10T00:24:31;0.67;;;0.40;;
71937;SDS011;59810;48.800;9.086;2023-05-10T00:26:56;0.80;;;0.30;;
71937;SDS011;59810;48.800;9.086;2023-05-10T00:29:22;0.80;;;0.30;;
71937;SDS011;59810;48.800;9.086;2023-05-10T00:31:47;1.47;;;0.30;;
71937;SDS011;59810;48.800;9.086;2023-05-10T00:34:12;0.70;;;0.23;;
71937;SDS011;59810;48.800;9.086;2023-05-10T00:36:38;0.83;;;0.33;;
71937;SDS011;59810;48.800;9.086;2023-05-10T00:39:03;0.57;;;0.30;;
71937;SDS011;59810;48.800;9.086;2023-05-10T00:41:29;0.50;;;0.30;;
71937;SDS011;59810;48.800;9.086;2023-05-10T00:43:57;1.20;;;0.30;;
71937;SDS011;59810;48.800;9.086;2023-05-10T00:46:26;0.47;;;0.30;;
71937;SDS011;59810;48.800;9.086;2023-05-10T00:48:53;0.90;;;0.30;;
71937;SDS011;59810;48.800;9.086;2023-05-10T00:51:18;1.00;;;0.30;;
71937;SDS011;59810;48.800;9.086;2023-05-10T00:53:47;1.93;;;0.60;;
71937;SDS011;59810;48.800;9.086;2023-05-10T00:56:16;1.58;;;0.30;;
71937;SDS011;59810;48.800;9.086;2023-05-10T00:58:42;0.70;;;0.30;;
71937;SDS011;59810;48.800;9.086;2023-05-10T01:01:07;1.00;;;0.40;;
71937;SDS011;59810;48.800;9.086;2023-05-10T01:03:36;0.65;;;0.30;;
71937;SDS011;59810;48.800;9.086;2023-05-10T01:06:02;0.77;;;0.30;;
71937;SDS011;59810;48.800;9.086;2023-05-10T01:08:28;0.67;;;0.30;;
71937;SDS011;59810;48.800;9.086;2023-05-10T01:10:54;0.77;;;0.30;;
71937;SDS011;59810;48.800;9.086;2023-05-10T01:13:29;0.73;;;0.30;;
71937;SDS011;59810;48.800;9.086;2023-05-10T01:16:01;1.10;;;0.50;;
71937;SDS011;59810;48.800;9.086;2023-05-10T01:18:32;0.95;;;0.40;;
71937;SDS011;59810;48.800;9.086;2023-05-10T01:21:38;1.10;;;0.40;;
71937;SDS011;59810;48.800;9.086;2023-05-10T01:35:40;1.40;;;0.43;;
71937;SDS011;59810;48.800;9.086;2023-05-10T01:43:37;2.80;;;0.50;;
71937;SDS011;59810;48.800;9.086;2023-05-10T01:46:17;1.00;;;0.40;;
71937;SDS011;59810;48.800;9.086;2023-05-10T01:48:47;2.38;;;0.50;;
71937;SDS011;59810;48.800;9.086;2023-05-10T01:51:16;1.97;;;0.40;;
71937;SDS011;59810;48.800;9.086;2023-05-10T01:53:47;1.10;;;0.40;;
71937;SDS011;59810;48.800;9.086;2023-05-10T01:56:13;0.90;;;0.50;;
71937;SDS011;59810;48.800;9.086;2023-05-10T01:58:43;1.15;;;0.32;;
71937;SDS011;59810;48.800;9.086;2023-05-10T02:01:13;1.15;;;0.40;;
71937;SDS011;59810;48.800;9.086;2023-05-10T02:03:40;1.20;;;0.40;;
71937;SDS011;59810;48.800;9.086;2023-05-10T02:06:07;1.08;;;0.40;;
71937;SDS011;59810;48.800;9.086;2023-05-10T02:08:38;1.83;;;0.43;;
71937;SDS011;59810;48.800;9.086;2023-05-10T02:11:06;1.00;;;0.30;;
71937;SDS011;59810;48.800;9.086;2023-05-10T02:13:33;2.22;;;0.50;;
71937;SDS011;59810;48.800;9.086;2023-05-10T02:16:01;1.20;;;0.43;;
71937;SDS011;59810;48.800;9.086;2023-05-10T02:18:29;2.45;;;0.50;;
71937;SDS011;59810;48.800;9.086;2023-05-10T02:20:58;2.15;;;0.50;;
71937;SDS011;59810;48.800;9.086;2023-05-10T02:23:25;1.00;;;0.50;;
71937;SDS011;59810;48.800;9.086;2023-05-10T02:25:51;1.00;;;0.40;;
71937;SDS011;59810;48.800;9.086;2023-05-10T02:28:23;1.00;;;0.40;;
71937;SDS011;59810;48.800;9.086;2023-05-10T02:30:50;1.17;;;0.45;;
71937;SDS011;59810;48.800;9.086;2023-05-10T02:33:16;1.20;;;0.50;;
71937;SDS011;59810;48.800;9.086;2023-05-10T02:35:42;1.60;;;0.50;;
71937;SDS011;59810;48.800;9.086;2023-05-10T02:38:11;1.27;;;0.40;;
71937;SDS011;59810;48.800;9.086;2023-05-10T02:40:37;1.40;;;0.50;;
71937;SDS011;59810;48.800;9.086;2023-05-10T02:43:03;2.58;;;0.40;;
71937;SDS011;59810;48.800;9.086;2023-05-10T02:45:31;1.88;;;0.80;;
71937;SDS011;59810;48.800;9.086;2023-05-10T02:47:57;2.15;;;0.50;;
71937;SDS011;59810;48.800;9.086;2023-05-10T02:50:23;4.73;;;0.60;;
71937;SDS011;59810;48.800;9.086;2023-05-10T02:52:53;3.95;;;0.50;;
71937;SDS011;59810;48.800;9.086;2023-05-10T02:55:22;1.73;;;0.60;;
71937;SDS011;59810;48.800;9.086;2023-05-10T02:57:57;1.98;;;0.80;;
71937;SDS011;59810;48.800;9.086;2023-05-10T03:00:24;1.20;;;0.50;;
71937;SDS011;59810;48.800;9.086;2023-05-10T03:02:50;3.53;;;0.70;;
71937;SDS011;59810;48.800;9.086;2023-05-10T03:05:18;3.83;;;0.60;;
71937;SDS011;59810;48.800;9.086;2023-05-10T03:07:44;2.03;;;0.73;;
71937;SDS011;59810;48.800;9.086;2023-05-10T03:10:11;1.58;;;0.50;;
71937;SDS011;59810;48.800;9.086;2023-05-10T03:18:07;3.92;;;0.98;;
71937;SDS011;59810;48.800;9.086;2023-05-10T03:20:42;3.22;;;0.82;;
71937;SDS011;59810;48.800;9.086;2023-05-10T03:23:13;3.90;;;0.90;;
71937;SDS011;59810;48.800;9.086;2023-05-10T03:25:51;2.47;;;1.00;;
71937;SDS011;59810;48.800;9.086;2023-05-10T03:28:18;2.47;;;0.90;;
71937;SDS011;59810;48.800;9.086;2023-05-10T03:30:47;2.78;;;0.80;;
71937;SDS011;59810;48.800;9.086;2023-05-10T03:33:14;4.65;;;1.33;;
71937;SDS011;59810;48.800;9.086;2023-05-10T03:35:39;3.10;;;0.90;;
71937;SDS011;59810;48.800;9.086;2023-05-10T03:38:05;4.03;;;0.83;;
71937;SDS011;59810;48.800;9.086;2023-05-10T03:40:30;2.67;;;0.77;;
71937;SDS011;59810;48.800;9.086;2023-05-10T03:42:57;1.93;;;0.80;;
71937;SDS011;59810;48.800;9.086;2023-05-10T03:45:23;4.38;;;0.80;;
71937;SDS011;59810;48.800;9.086;2023-05-10T03:47:48;1.87;;;0.70;;
71937;SDS011;59810;48.800;9.086;2023-05-10T03:50:14;1.73;;;0.60;;
71937;SDS011;59810;48.800;9.086;2023-05-10T03:52:39;3.20;;;0.80;;
71937;SDS011;59810;48.800;9.086;2023-05-10T03:55:10;2.67;;;0.80;;
71937;SDS011;59810;48.800;9.086;2023-05-10T03:57:36;2.00;;;0.73;;
71937;SDS011;59810;48.800;9.086;2023-05-10T04:00:02;3.08;;;0.80;;
71937;SDS011;59810;48.800;9.086;2023-05-10T04:02:28;1.83;;;0.60;;
71937;SDS011;59810;48.800;9.086;2023-05-10T04:04:54;1.75;;;0.70;;
71937;SDS011;59810;48.800;9.086;2023-05-10T04:07:20;2.37;;;0.60;;
71937;SDS011;59810;48.800;9.086;2023-05-10T04:09:45;2.53;;;0.70;;
71937;SDS011;59810;48.800;9.086;2023-05-10T04:12:10;2.08;;;0.55;;
71937;SDS011;59810;48.800;9.086;2023-05-10T04:14:36;1.73;;;0.60;;
71937;SDS011;59810;48.800;9.086;2023-05-10T04:17:04;2.17;;;0.70;;
71937;SDS011;59810;48.800;9.086;2023-05-10T04:19:32;2.20;;;0.70;;
71937;SDS011;59810;48.800;9.086;2023-05-10T04:21:58;2.22;;;0.90;;
71937;SDS011;59810;48.800;9.086;2023-05-10T04:24:24;2.50;;;0.70;;
71937;SDS011;59810;48.800;9.086;2023-05-10T04:26:53;2.38;;;0.70;;
71937;SDS011;59810;48.800;9.086;2023-05-10T04:29:19;3.95;;;0.90;;
71937;SDS011;59810;48.800;9.086;2023-05-10T04:31:44;3.63;;;0.80;;
71937;SDS011;59810;48.800;9.086;2023-05-10T04:34:09;1.63;;;0.80;;
71937;SDS011;59810;48.800;9.086;2023-05-10T04:36:37;2.27;;;0.80;;
71937;SDS011;59810;48.800;9.086;2023-05-10T04:39:03;1.80;;;0.60;;
71937;SDS011;59810;48.800;9.086;2023-05-10T04:41:29;3.72;;;1.00;;
71937;SDS011;59810;48.800;9.086;2023-05-10T04:43:55;2.57;;;0.70;;
71937;SDS011;59810;48.800;9.086;2023-05-10T04:46:20;2.20;;;0.70;;
71937;SDS011;59810;48.800;9.086;2023-05-10T04:48:48;1.20;;;0.50;;
71937;SDS011;59810;48.800;9.086;2023-05-10T04:51:13;1.83;;;0.63;;
71937;SDS011;59810;48.800;9.086;2023-05-10T04:53:44;2.70;;;0.70;;
71937;SDS011;59810;48.800;9.086;2023-05-10T04:56:09;2.67;;;0.73;;
71937;SDS011;59810;48.800;9.086;2023-05-10T04:58:37;1.70;;;0.60;;
71937;SDS011;59810;48.800;9.086;2023-05-10T05:01:09;2.93;;;0.80;;
71937;SDS011;59810;48.800;9.086;2023-05-10T05:03:35;2.35;;;0.90;;
71937;SDS011;59810;48.800;9.086;2023-05-10T05:06:01;4.53;;;0.80;;
71937;SDS011;59810;48.800;9.086;2023-05-10T05:08:27;2.05;;;0.80;;
71937;SDS011;59810;48.800;9.086;2023-05-10T05:10:53;3.70;;;0.60;;
71937;SDS011;59810;48.800;9.086;2023-05-10T05:13:18;2.27;;;0.70;;
71937;SDS011;59810;48.800;9.086;2023-05-10T05:15:46;2.60;;;0.80;;
71937;SDS011;59810;48.800;9.086;2023-05-10T05:18:11;4.77;;;0.90;;
71937;SDS011;59810;48.800;9.086;2023-05-10T05:20:36;2.17;;;0.80;;
71937;SDS011;59810;48.800;9.086;2023-05-10T05:23:04;3.70;;;0.80;;
71937;SDS011;59810;48.800;9.086;2023-05-10T05:25:29;2.95;;;0.73;;
71937;SDS011;59810;48.800;9.086;2023-05-10T05:27:55;2.60;;;1.03;;
71937;SDS011;59810;48.800;9.086;2023-05-10T05:30:20;2.05;;;0.82;;
71937;SDS011;59810;48.800;9.086;2023-05-10T05:32:48;2.67;;;0.80;;
71937;SDS011;59810;48.800;9.086;2023-05-10T05:35:13;2.20;;;0.73;;
71937;SDS011;59810;48.800;9.086;2023-05-10T05:37:38;2.17;;;0.80;;
71937;SDS011;59810;48.800;9.086;2023-05-10T05:40:06;2.80;;;1.10;;
71937;SDS011;59810;48.800;9.086;2023-05-10T05:42:32;5.82;;;1.45;;
71937;SDS011;59810;48.800;9.086;2023-05-10T05:44:57;2.67;;;0.97;;
71937;SDS011;59810;48.800;9.086;2023-05-10T05:47:25;2.00;;;0.80;;
71937;SDS011;59810;48.800;9.086;2023-05-10T05:49:50;3.63;;;0.87;;
71937;SDS011;59810;48.800;9.086;2023-05-10T05:52:20;2.35;;;0.80;;
71937;SDS011;59810;48.800;9.086;2023-05-10T05:54:46;2.70;;;0.90;;
71937;SDS011;59810;48.800;9.086;2023-05-10T05:57:11;2.53;;;0.97;;
71937;SDS011;59810;48.800;9.086;2023-05-10T05:59:37;3.17;;;1.00;;
71937;SDS011;59810;48.800;9.086;2023-05-10T06:02:06;2.67;;;0.95;;
71937;SDS011;59810;48.800;9.086;2023-05-10T06:04:32;2.95;;;1.00;;
71937;SDS011;59810;48.800;9.086;2023-05-10T06:06:57;2.10;;;1.00;;
71937;SDS011;59810;48.800;9.086;2023-05-10T06:09:25;2.63;;;0.90;;
71937;SDS011;59810;48.800;9.086;2023-05-10T06:11:50;4.13;;;1.07;;
71937;SDS011;59810;48.800;9.086;2023-05-10T06:14:16;4.67;;;0.80;;
71937;SDS011;59810;48.800;9.086;2023-05-10T06:16:41;2.80;;;0.83;;
71937;SDS011;59810;48.800;9.086;2023-05-10T06:19:07;4.67;;;0.80;;
71937;SDS011;59810;48.800;9.086;2023-05-10T06:21:32;3.30;;;1.08;;
71937;SDS011;59810;48.800;9.086;2023-05-10T06:24:00;6.90;;;2.03;;
71937;SDS011;59810;48.800;9.086;2023-05-10T06:26:28;3.78;;;1.02;;
71937;SDS011;59810;48.800;9.086;2023-05-10T06:28:53;2.67;;;0.80;;
71937;SDS011;59810;48.800;9.086;2023-05-10T06:31:19;2.30;;;0.90;;
71937;SDS011;59810;48.800;9.086;2023-05-10T06:33:44;3.47;;;0.80;;
71937;SDS011;59810;48.800;9.086;2023-05-10T06:36:09;3.33;;;0.90;;
71937;SDS011;59810;48.800;9.086;2023-05-10T06:38:35;3.03;;;0.90;;
71937;SDS011;59810;48.800;9.086;2023-05-10T06:41:00;2.77;;;0.90;;
71937;SDS011;59810;48.800;9.086;2023-05-10T06:43:26;17.67;;;2.23;;
71937;SDS011;59810;48.800;9.086;2023-05-10T06:45:53;2.55;;;0.77;;
71937;SDS011;59810;48.800;9.086;2023-05-10T06:48:18;3.43;;;1.00;;
71937;SDS011;59810;48.800;9.086;2023-05-10T06:50:44;3.67;;;0.93;;
71937;SDS011;59810;48.800;9.086;2023-05-10T06:53:11;3.03;;;1.05;;
71937;SDS011;59810;48.800;9.086;2023-05-10T06:55:38;2.10;;;0.90;;
71937;SDS011;59810;48.800;9.086;2023-05-10T06:58:03;5.17;;;1.00;;
71937;SDS011;59810;48.800;9.086;2023-05-10T07:00:29;2.92;;;0.98;;
71937;SDS011;59810;48.800;9.086;2023-05-10T07:02:54;2.17;;;0.80;;
71937;SDS011;59810;48.800;9.086;2023-05-10T07:05:20;2.77;;;1.00;;
71937;SDS011;59810;48.800;9.086;2023-05-10T07:07:46;3.65;;;1.08;;
71937;SDS011;59810;48.800;9.086;2023-05-10T07:10:11;3.07;;;0.90;;
71937;SDS011;59810;48.800;9.086;2023-05-10T07:12:37;3.00;;;1.00;;
71937;SDS011;59810;48.800;9.086;2023-05-10T07:15:03;2.85;;;0.90;;
71937;SDS011;59810;48.800;9.086;2023-05-10T07:17:29;4.22;;;0.93;;
71937;SDS011;59810;48.800;9.086;2023-05-10T07:19:57;2.70;;;0.83;;
71937;SDS011;59810;48.800;9.086;2023-05-10T07:22:25;3.28;;;0.88;;
71937;SDS011;59810;48.800;9.086;2023-05-10T07:24:51;2.05;;;0.70;;
71937;SDS011;59810;48.800;9.086;2023-05-10T07:27:19;2.87;;;0.90;;
71937;SDS011;59810;48.800;9.086;2023-05-10T07:29:44;2.47;;;0.85;;
71937;SDS011;59810;48.800;9.086;2023-05-10T07:32:09;2.90;;;0.90;;
71937;SDS011;59810;48.800;9.086;2023-05-10T07:34:35;2.97;;;0.90;;
71937;SDS011;59810;48.800;9.086;2023-05-10T07:37:02;1.50;;;0.60;;
71937;SDS011;59810;48.800;9.086;2023-05-10T07:39:28;2.47;;;0.90;;
71937;SDS011;59810;48.800;9.086;2023-05-10T07:41:53;3.07;;;0.67;;
71937;SDS011;59810;48.800;9.086;2023-05-10T07:44:24;3.25;;;0.90;;
71937;SDS011;59810;48.800;9.086;2023-05-10T07:46:50;1.85;;;0.60;;
71937;SDS011;59810;48.800;9.086;2023-05-10T07:49:17;2.72;;;0.75;;
71937;SDS011;59810;48.800;9.086;2023-05-10T07:51:45;2.83;;;0.70;;
71937;SDS011;59810;48.800;9.086;2023-05-10T07:54:11;3.50;;;0.80;;
71937;SDS011;59810;48.800;9.086;2023-05-10T07:56:37;3.13;;;0.70;;
71937;SDS011;59810;48.800;9.086;2023-05-10T07:59:04;4.72;;;0.95;;
71937;SDS011;59810;48.800;9.086;2023-05-10T08:01:33;2.47;;;0.70;;
71937;SDS011;59810;48.800;9.086;2023-05-10T08:04:00;1.70;;;0.70;;
71937;SDS011;59810;48.800;9.086;2023-05-10T08:06:27;2.22;;;0.70;;
71937;SDS011;59810;48.800;9.086;2023-05-10T08:08:54;3.60;;;0.70;;
71937;SDS011;59810;48.800;9.086;2023-05-10T08:11:20;3.65;;;0.68;;
71937;SDS011;59810;48.800;9.086;2023-05-10T08:13:46;2.20;;;0.80;;
71937;SDS011;59810;48.800;9.086;2023-05-10T08:16:12;4.07;;;0.63;;
71937;SDS011;59810;48.800;9.086;2023-05-10T08:18:40;5.38;;;0.88;;
71937;SDS011;59810;48.800;9.086;2023-05-10T08:21:06;5.17;;;0.90;;
71937;SDS011;59810;48.800;9.086;2023-05-10T08:23:31;2.78;;;0.50;;
71937;SDS011;59810;48.800;9.086;2023-05-10T08:25:57;3.20;;;0.60;;
71937;SDS011;59810;48.800;9.086;2023-05-10T08:28:25;2.03;;;0.68;;
71937;SDS011;59810;48.800;9.086;2023-05-10T08:30:50;2.37;;;0.60;;
71937;SDS011;59810;48.800;9.086;2023-05-10T08:33:19;1.33;;;0.50;;
71937;SDS011;59810;48.800;9.086;2023-05-10T08:35:44;1.42;;;0.50;;
71937;SDS011;59810;48.800;9.086;2023-05-10T08:38:10;1.23;;;0.50;;
71937;SDS011;59810;48.800;9.086;2023-05-10T08:40:39;2.23;;;0.80;;
71937;SDS011;59810;48.800;9.086;2023-05-10T08:43:10;2.95;;;0.50;;
71937;SDS011;59810;48.800;9.086;2023-05-10T08:45:37;3.35;;;0.60;;
71937;SDS011;59810;48.800;9.086;2023-05-10T08:48:07;2.28;;;0.60;;
71937;SDS011;59810;48.800;9.086;2023-05-10T08:50:36;4.07;;;0.60;;
71937;SDS011;59810;48.800;9.086;2023-05-10T08:53:04;1.27;;;0.40;;
71937;SDS011;59810;48.800;9.086;2023-05-10T08:55:32;1.55;;;0.50;;
71937;SDS011;59810;48.800;9.086;2023-05-10T08:57:59;4.78;;;0.50;;
71937;SDS011;59810;48.800;9.086;2023-05-10T09:00:25;1.35;;;0.50;;
71937;SDS011;59810;48.800;9.086;2023-05-10T09:02:52;1.23;;;0.50;;
71937;SDS011;59810;48.800;9.086;2023-05-10T09:05:18;1.48;;;0.70;;
71937;SDS011;59810;48.800;9.086;2023-05-10T09:07:44;2.73;;;0.80;;
71937;SDS011;59810;48.800;9.086;2023-05-10T09:10:09;3.00;;;0.70;;
71937;SDS011;59810;48.800;9.086;2023-05-10T09:12:38;1.00;;;0.55;;
71937;SDS011;59810;48.800;9.086;2023-05-10T09:15:04;1.30;;;0.50;;
71937;SDS011;59810;48.800;9.086;2023-05-10T09:17:31;1.15;;;0.60;;
71937;SDS011;59810;48.800;9.086;2023-05-10T09:20:00;5.70;;;0.90;;
71937;SDS011;59810;48.800;9.086;2023-05-10T09:22:26;2.53;;;0.60;;
71937;SDS011;59810;48.800;9.086;2023-05-10T09:25:06;1.20;;;0.60;;
71937;SDS011;59810;48.800;9.086;2023-05-10T09:27:39;1.67;;;0.55;;
71937;SDS011;59810;48.800;9.086;2023-05-10T09:30:07;1.65;;;0.60;;
71937;SDS011;59810;48.800;9.086;2023-05-10T09:32:41;2.27;;;0.67;;
71937;SDS011;59810;48.800;9.086;2023-05-10T09:35:08;2.25;;;0.47;;
71937;SDS011;59810;48.800;9.086;2023-05-10T09:37:40;1.75;;;0.75;;
71937;SDS011;59810;48.800;9.086;2023-05-10T09:40:08;1.48;;;0.52;;
71937;SDS011;59810;48.800;9.086;2023-05-10T09:42:39;1.50;;;0.60;;
71937;SDS011;59810;48.800;9.086;2023-05-10T09:45:07;1.37;;;0.50;;
71937;SDS011;59810;48.800;9.086;2023-05-10T09:47:33;1.20;;;0.50;;
71937;SDS011;59810;48.800;9.086;2023-05-10T09:50:02;3.45;;;0.60;;
71937;SDS011;59810;48.800;9.086;2023-05-10T09:52:30;2.13;;;0.80;;
71937;SDS011;59810;48.800;9.086;2023-05-10T09:54:56;1.60;;;0.47;;
71937;SDS011;59810;48.800;9.086;2023-05-10T09:57:22;1.48;;;0.55;;
71937;SDS011;59810;48.800;9.086;2023-05-10T09:59:49;3.58;;;0.60;;
71937;SDS011;59810;48.800;9.086;2023-05-10T10:02:15;1.53;;;0.50;;
71937;SDS011;59810;48.800;9.086;2023-05-10T10:04:41;2.08;;;0.50;;
71937;SDS011;59810;48.800;9.086;2023-05-10T10:07:07;1.58;;;0.57;;
71937;SDS011;59810;48.800;9.086;2023-05-10T10:09:35;2.20;;;0.60;;
71937;SDS011;59810;48.800;9.086;2023-05-10T10:12:01;1.13;;;0.60;;
71937;SDS011;59810;48.800;9.086;2023-05-10T10:14:27;3.58;;;0.77;;
71937;SDS011;59810;48.800;9.086;2023-05-10T10:16:53;3.08;;;0.50;;
71937;SDS011;59810;48.800;9.086;2023-05-10T10:19:21;1.57;;;0.53;;
71937;SDS011;59810;48.800;9.086;2023-05-10T10:21:47;1.48;;;0.57;;
71937;SDS011;59810;48.800;9.086;2023-05-10T10:24:17;1.42;;;0.50;;
71937;SDS011;59810;48.800;9.086;2023-05-10T10:26:42;2.55;;;0.63;;
71937;SDS011;59810;48.800;9.086;2023-05-10T10:34:56;3.13;;;0.70;;
71937;SDS011;59810;48.800;9.086;2023-05-10T10:37:24;1.65;;;0.68;;
71937;SDS011;59810;48.800;9.086;2023-05-10T10:40:27;1.77;;;0.63;;
71937;SDS011;59810;48.800;9.086;2023-05-10T10:42:54;3.80;;;0.70;;
71937;SDS011;59810;48.800;9.086;2023-05-10T10:45:21;1.90;;;0.52;;
71937;SDS011;59810;48.800;9.086;2023-05-10T10:47:47;0.80;;;0.40;;
71937;SDS011;59810;48.800;9.086;2023-05-10T10:50:13;1.27;;;0.50;;
71937;SDS011;59810;48.800;9.086;2023-05-10T10:52:45;1.20;;;0.50;;
71937;SDS011;59810;48.800;9.086;2023-05-10T10:55:11;1.08;;;0.40;;
71937;SDS011;59810;48.800;9.086;2023-05-10T11:00:32;2.28;;;0.52;;
71937;SDS011;59810;48.800;9.086;2023-05-10T11:05:41;1.27;;;0.40;;
71937;SDS011;59810;48.800;9.086;2023-05-10T11:10:39;1.45;;;0.50;;
71937;SDS011;59810;48.800;9.086;2023-05-10T11:13:17;2.38;;;0.60;;
71937;SDS011;59810;48.800;9.086;2023-05-10T11:15:52;1.77;;;0.50;;
71937;SDS011;59810;48.800;9.086;2023-05-10T11:18:28;2.80;;;0.60;;
71937;SDS011;59810;48.800;9.086;2023-05-10T11:21:00;1.42;;;0.50;;
71937;SDS011;59810;48.800;9.086;2023-05-10T11:26:08;3.08;;;0.63;;
71937;SDS011;59810;48.800;9.086;2023-05-10T11:28:34;2.33;;;0.60;;
71937;SDS011;59810;48.800;9.086;2023-05-10T11:31:06;2.97;;;0.50;;
71937;SDS011;59810;48.800;9.086;2023-05-10T11:33:36;1.73;;;0.57;;
71937;SDS011;59810;48.800;9.086;2023-05-10T11:36:10;1.33;;;0.50;;
71937;SDS011;59810;48.800;9.086;2023-05-10T11:38:36;2.55;;;0.75;;
71937;SDS011;59810;48.800;9.086;2023-05-10T11:41:02;3.20;;;0.60;;
71937;SDS011;59810;48.800;9.086;2023-05-10T11:43:27;2.03;;;0.60;;
71937;SDS011;59810;48.800;9.086;2023-05-10T11:45:55;2.03;;;0.70;;
71937;SDS011;59810;48.800;9.086;2023-05-10T11:48:21;2.30;;;0.70;;
71937;SDS011;59810;48.800;9.086;2023-05-10T11:50:49;3.05;;;1.25;;
71937;SDS011;59810;48.800;9.086;2023-05-10T11:53:15;3.20;;;0.50;;
71937;SDS011;59810;48.800;9.086;2023-05-10T11:55:40;3.80;;;1.40;;
71937;SDS011;59810;48.800;9.086;2023-05-10T11:58:05;2.03;;;0.80;;
71937;SDS011;59810;48.800;9.086;2023-05-10T12:00:34;3.60;;;0.70;;
71937;SDS011;59810;48.800;9.086;2023-05-10T12:03:00;1.38;;;0.50;;
71937;SDS011;59810;48.800;9.086;2023-05-10T12:05:26;2.80;;;0.70;;
71937;SDS011;59810;48.800;9.086;2023-05-10T12:07:51;4.05;;;0.98;;
71937;SDS011;59810;48.800;9.086;2023-05-10T12:10:25;3.10;;;0.80;;
71937;SDS011;59810;48.800;9.086;2023-05-10T12:12:51;5.13;;;0.80;;
71937;SDS011;59810;48.800;9.086;2023-05-10T12:15:18;6.35;;;0.98;;
71937;SDS011;59810;48.800;9.086;2023-05-10T12:17:46;3.50;;;0.90;;
71937;SDS011;59810;48.800;9.086;2023-05-10T12:20:22;2.40;;;0.80;;
71937;SDS011;59810;48.800;9.086;2023-05-10T12:22:56;2.75;;;0.80;;
71937;SDS011;59810;48.800;9.086;2023-05-10T12:25:24;3.60;;;0.70;;
71937;SDS011;59810;48.800;9.086;2023-05-10T12:27:55;2.13;;;0.70;;
71937;SDS011;59810;48.800;9.086;2023-05-10T12:32:48;5.10;;;0.73;;
71937;SDS011;59810;48.800;9.086;2023-05-10T12:35:13;1.87;;;0.80;;
71937;SDS011;59810;48.800;9.086;2023-05-10T12:37:38;2.73;;;0.70;;
71937;SDS011;59810;48.800;9.086;2023-05-10T12:40:08;3.28;;;0.80;;
71937;SDS011;59810;48.800;9.086;2023-05-10T12:42:34;1.67;;;0.60;;
71937;SDS011;59810;48.800;9.086;2023-05-10T12:45:03;2.97;;;0.70;;
71937;SDS011;59810;48.800;9.086;2023-05-10T12:47:30;2.70;;;0.70;;
71937;SDS011;59810;48.800;9.086;2023-05-10T12:49:56;2.35;;;0.70;;
71937;SDS011;59810;48.800;9.086;2023-05-10T12:52:21;4.73;;;0.90;;
71937;SDS011;59810;48.800;9.086;2023-05-10T12:54:49;2.92;;;0.70;;
71937;SDS011;59810;48.800;9.086;2023-05-10T12:57:17;2.13;;;0.80;;
71937;SDS011;59810;48.800;9.086;2023-05-10T12:59:42;3.45;;;0.80;;
71937;SDS011;59810;48.800;9.086;2023-05-10T13:02:07;3.00;;;0.97;;
71937;SDS011;59810;48.800;9.086;2023-05-10T13:04:35;2.95;;;0.90;;
71937;SDS011;59810;48.800;9.086;2023-05-10T13:07:04;3.42;;;0.80;;
71937;SDS011;59810;48.800;9.086;2023-05-10T13:09:33;2.97;;;0.73;;
71937;SDS011;59810;48.800;9.086;2023-05-10T13:11:58;2.45;;;1.02;;
71937;SDS011;59810;48.800;9.086;2023-05-10T13:14:28;3.33;;;0.87;;
71937;SDS011;59810;48.800;9.086;2023-05-10T13:16:54;5.53;;;0.90;;
71937;SDS011;59810;48.800;9.086;2023-05-10T13:19:20;2.70;;;1.07;;
71937;SDS011;59810;48.800;9.086;2023-05-10T13:21:45;4.50;;;0.88;;
71937;SDS011;59810;48.800;9.086;2023-05-10T13:24:10;3.57;;;0.67;;
71937;SDS011;59810;48.800;9.086;2023-05-10T13:26:38;2.80;;;0.85;;
71937;SDS011;59810;48.800;9.086;2023-05-10T13:29:04;4.77;;;0.80;;
71937;SDS011;59810;48.800;9.086;2023-05-10T13:31:30;3.33;;;0.70;;
71937;SDS011;59810;48.800;9.086;2023-05-10T13:33:55;2.67;;;0.70;;
71937;SDS011;59810;48.800;9.086;2023-05-10T13:36:20;2.53;;;0.90;;
71937;SDS011;59810;48.800;9.086;2023-05-10T13:38:46;4.47;;;0.90;;
71937;SDS011;59810;48.800;9.086;2023-05-10T13:41:11;2.67;;;0.80;;
71937;SDS011;59810;48.800;9.086;2023-05-10T13:43:36;2.15;;;0.60;;
71937;SDS011;59810;48.800;9.086;2023-05-10T13:46:02;2.80;;;0.70;;
71937;SDS011;59810;48.800;9.086;2023-05-10T13:48:27;4.33;;;0.90;;
71937;SDS011;59810;48.800;9.086;2023-05-10T13:50:53;1.57;;;0.60;;
71937;SDS011;59810;48.800;9.086;2023-05-10T13:53:18;2.37;;;0.80;;
71937;SDS011;59810;48.800;9.086;2023-05-10T13:55:46;2.35;;;0.77;;
71937;SDS011;59810;48.800;9.086;2023-05-10T13:58:12;2.87;;;0.70;;
71937;SDS011;59810;48.800;9.086;2023-05-10T14:00:37;4.45;;;0.80;;
71937;SDS011;59810;48.800;9.086;2023-05-10T14:03:03;3.63;;;0.70;;
71937;SDS011;59810;48.800;9.086;2023-05-10T14:05:29;4.30;;;0.60;;
71937;SDS011;59810;48.800;9.086;2023-05-10T14:07:57;3.23;;;0.80;;
71937;SDS011;59810;48.800;9.086;2023-05-10T14:10:23;2.72;;;0.73;;
71937;SDS011;59810;48.800;9.086;2023-05-10T14:12:49;3.13;;;0.63;;
71937;SDS011;59810;48.800;9.086;2023-05-10T14:15:14;5.80;;;0.80;;
71937;SDS011;59810;48.800;9.086;2023-05-10T14:17:40;3.67;;;0.90;;
71937;SDS011;59810;48.800;9.086;2023-05-10T14:20:05;3.23;;;0.80;;
71937;SDS011;59810;48.800;9.086;2023-05-10T14:22:36;3.00;;;0.60;;
71937;SDS011;59810;48.800;9.086;2023-05-10T14:25:02;3.80;;;0.80;;
71937;SDS011;59810;48.800;9.086;2023-05-10T14:27:27;2.33;;;0.75;;
71937;SDS011;59810;48.800;9.086;2023-05-10T14:29:55;2.50;;;0.70;;
71937;SDS011;59810;48.800;9.086;2023-05-10T14:32:21;4.23;;;0.80;;
71937;SDS011;59810;48.800;9.086;2023-05-10T14:34:46;2.00;;;0.70;;
71937;SDS011;59810;48.800;9.086;2023-05-10T14:37:13;2.27;;;0.80;;
71937;SDS011;59810;48.800;9.086;2023-05-10T14:39:38;3.47;;;1.00;;
71937;SDS011;59810;48.800;9.086;2023-05-10T14:42:04;1.97;;;0.70;;
71937;SDS011;59810;48.800;9.086;2023-05-10T14:44:29;3.25;;;0.88;;
71937;SDS011;59810;48.800;9.086;2023-05-10T14:46:55;2.97;;;0.80;;
71937;SDS011;59810;48.800;9.086;2023-05-10T14:49:21;2.80;;;0.90;;
71937;SDS011;59810;48.800;9.086;2023-05-10T14:51:53;3.20;;;1.00;;
71937;SDS011;59810;48.800;9.086;2023-05-10T14:54:18;4.05;;;0.88;;
71937;SDS011;59810;48.800;9.086;2023-05-10T14:56:44;2.90;;;0.77;;
71937;SDS011;59810;48.800;9.086;2023-05-10T14:59:10;2.63;;;0.60;;
71937;SDS011;59810;48.800;9.086;2023-05-10T15:01:35;2.22;;;0.65;;
71937;SDS011;59810;48.800;9.086;2023-05-10T15:04:03;3.10;;;0.83;;
71937;SDS011;59810;48.800;9.086;2023-05-10T15:06:32;3.75;;;0.77;;
71937;SDS011;59810;48.800;9.086;2023-05-10T15:08:58;1.83;;;0.80;;
71937;SDS011;59810;48.800;9.086;2023-05-10T15:11:28;4.90;;;1.00;;
71937;SDS011;59810;48.800;9.086;2023-05-10T15:13:54;4.57;;;0.90;;
71937;SDS011;59810;48.800;9.086;2023-05-10T15:16:19;2.35;;;0.82;;
71937;SDS011;59810;48.800;9.086;2023-05-10T15:18:44;2.87;;;0.67;;
71937;SDS011;59810;48.800;9.086;2023-05-10T15:21:10;2.17;;;0.70;;
71937;SDS011;59810;48.800;9.086;2023-05-10T15:23:36;2.95;;;0.70;;
71937;SDS011;59810;48.800;9.086;2023-05-10T15:26:01;2.60;;;0.80;;
71937;SDS011;59810;48.800;9.086;2023-05-10T15:28:27;2.17;;;0.70;;